createdAt,value
2022-12-05T00:02:29.621Z,70
2022-12-05T00:05:00.076Z,70
2022-12-05T00:07:30.490Z,70
2022-12-05T00:10:00.984Z,70
2022-12-05T00:12:31.255Z,69
2022-12-05T00:15:02.616Z,70
2022-12-05T00:17:33.582Z,69
2022-12-05T00:20:04.422Z,69
2022-12-05T00:22:35.300Z,69
2022-12-05T00:25:06.019Z,69
2022-12-05T00:27:36.722Z,69
2022-12-05T00:30:07.327Z,69
2022-12-05T00:32:37.518Z,69
2022-12-05T00:35:08.499Z,69
2022-12-05T00:37:37.677Z,69
2022-12-05T00:40:08.030Z,69
2022-12-05T00:42:38.826Z,69
2022-12-05T00:45:09.789Z,69
2022-12-05T00:47:41.227Z,69
2022-12-05T00:50:12.011Z,69
2022-12-05T00:52:42.684Z,69
2022-12-05T00:55:13.614Z,69
2022-12-05T00:57:43.964Z,69
2022-12-05T01:00:14.516Z,69
2022-12-05T01:02:45.157Z,69
2022-12-05T01:05:15.681Z,69
2022-12-05T01:07:46.719Z,69
2022-12-05T01:10:16.146Z,69
2022-12-05T01:12:47.003Z,70
2022-12-05T01:15:17.770Z,70
2022-12-05T01:17:48.754Z,69
2022-12-05T01:20:19.292Z,69
2022-12-05T01:22:50.477Z,69
2022-12-05T01:25:21.520Z,69
2022-12-05T01:27:53.112Z,69
2022-12-05T01:30:23.884Z,68
2022-12-05T01:32:55.180Z,68
2022-12-05T01:35:26.419Z,68
2022-12-05T01:37:57.655Z,68
2022-12-05T01:40:28.582Z,69
2022-12-05T01:42:59.369Z,69
2022-12-05T01:45:30.066Z,69
2022-12-05T01:48:00.951Z,68
2022-12-05T01:50:31.917Z,68
2022-12-05T01:53:01.468Z,68
2022-12-05T01:55:32.438Z,68
2022-12-05T01:58:02.428Z,68
2022-12-05T02:00:33.594Z,68
2022-12-05T02:03:04.554Z,68
2022-12-05T02:05:35.379Z,68
2022-12-05T02:08:06.442Z,68
2022-12-05T02:10:37.319Z,67
2022-12-05T02:13:08.319Z,68
2022-12-05T02:15:39.740Z,68
2022-12-05T02:18:10.296Z,68
2022-12-05T02:20:41.430Z,68
2022-12-05T02:23:15.787Z,68
2022-12-05T02:25:46.508Z,68
2022-12-05T02:28:17.273Z,68
2022-12-05T02:30:47.782Z,68
2022-12-05T02:33:18.422Z,68
2022-12-05T02:35:49.550Z,68
2022-12-05T02:38:20.604Z,68
2022-12-05T02:40:51.689Z,67
2022-12-05T02:43:22.979Z,68
2022-12-05T02:45:54.885Z,67
2022-12-05T02:48:25.800Z,68
2022-12-05T02:50:56.511Z,68
2022-12-05T02:53:27.699Z,68
2022-12-05T02:55:58.118Z,67
2022-12-05T02:58:29.892Z,68
2022-12-05T03:01:01.174Z,68
2022-12-05T03:03:32.389Z,68
2022-12-05T03:06:03.716Z,68
2022-12-05T03:08:34.759Z,68
2022-12-05T03:11:06.285Z,68
2022-12-05T03:13:37.577Z,68
2022-12-05T03:16:08.602Z,68
2022-12-05T03:18:39.848Z,68
2022-12-05T03:21:10.757Z,69
2022-12-05T03:23:42.460Z,69
2022-12-05T03:26:15.888Z,69
2022-12-05T03:28:47.948Z,69
2022-12-05T03:31:19.196Z,69
2022-12-05T03:33:50.805Z,69
2022-12-05T03:36:21.374Z,69
2022-12-05T03:38:52.047Z,69
2022-12-05T03:41:23.611Z,69
2022-12-05T03:43:54.939Z,69
2022-12-05T03:46:25.921Z,69
2022-12-05T03:48:57.764Z,69
2022-12-05T03:51:28.868Z,69
2022-12-05T03:54:00.147Z,69
2022-12-05T03:56:31.361Z,69
2022-12-05T03:59:02.524Z,69
2022-12-05T04:01:33.912Z,68
2022-12-05T04:04:05.379Z,69
2022-12-05T04:06:36.229Z,68
2022-12-05T04:09:11.175Z,69
2022-12-05T04:11:39.466Z,69
2022-12-05T04:14:10.519Z,69
2022-12-05T04:16:41.696Z,69
2022-12-05T04:19:12.567Z,69
2022-12-05T04:21:43.973Z,69
2022-12-05T04:24:14.613Z,68
2022-12-05T04:26:45.855Z,68
2022-12-05T04:29:16.593Z,69
2022-12-05T04:31:47.129Z,69
2022-12-05T04:34:17.811Z,69
2022-12-05T04:36:48.754Z,69
2022-12-05T04:39:19.361Z,69
2022-12-05T04:41:50.150Z,69
2022-12-05T04:44:21.589Z,69
2022-12-05T04:46:52.716Z,69
2022-12-05T04:49:23.577Z,69
2022-12-05T04:51:54.731Z,69
2022-12-05T04:54:25.387Z,69
2022-12-05T04:57:00.952Z,69
2022-12-05T04:59:27.446Z,70
2022-12-05T05:01:58.334Z,70
2022-12-05T05:04:29.407Z,70
2022-12-05T05:07:00.253Z,70
2022-12-05T05:09:31.626Z,70
2022-12-05T05:12:02.864Z,70
2022-12-05T05:14:33.670Z,70
2022-12-05T05:17:04.753Z,70
2022-12-05T05:19:36.150Z,70
2022-12-05T05:22:06.984Z,70
2022-12-05T05:24:38.260Z,71
2022-12-05T05:27:09.519Z,70
2022-12-05T05:29:40.603Z,70
2022-12-05T05:32:11.458Z,70
2022-12-05T05:34:41.893Z,71
2022-12-05T05:37:12.706Z,71
2022-12-05T05:39:44.317Z,71
2022-12-05T05:42:15.217Z,71
2022-12-05T05:44:46.543Z,71
2022-12-05T05:47:17.248Z,71
2022-12-05T05:49:48.101Z,71
2022-12-05T05:52:18.968Z,71
2022-12-05T05:54:49.737Z,71
2022-12-05T05:57:20.914Z,71
2022-12-05T05:59:51.965Z,71
2022-12-05T06:02:23.512Z,71
2022-12-05T06:04:53.776Z,71
2022-12-05T06:07:25.030Z,71
2022-12-05T06:09:56.433Z,71
2022-12-05T06:12:26.797Z,71
2022-12-05T06:14:57.871Z,70
2022-12-05T06:17:28.269Z,71
2022-12-05T06:19:59.522Z,71
2022-12-05T06:22:29.852Z,71
2022-12-05T06:25:01.227Z,71
2022-12-05T06:27:31.677Z,71
2022-12-05T06:30:02.790Z,70
2022-12-05T06:32:33.867Z,70
2022-12-05T06:35:04.941Z,70
2022-12-05T06:37:35.689Z,70
2022-12-05T06:40:06.496Z,70
2022-12-05T06:42:36.816Z,70
2022-12-05T06:45:07.890Z,70
2022-12-05T06:47:38.580Z,70
2022-12-05T06:50:09.499Z,70
2022-12-05T06:52:40.146Z,69
2022-12-05T06:55:11.144Z,69
2022-12-05T06:57:41.878Z,70
2022-12-05T07:00:13.145Z,69
2022-12-05T07:02:44.461Z,70
2022-12-05T07:05:15.259Z,69
2022-12-05T07:07:46.550Z,70
2022-12-05T07:10:17.499Z,69
2022-12-05T07:12:48.597Z,69
2022-12-05T07:15:20.286Z,69
2022-12-05T07:17:50.785Z,68
2022-12-05T07:20:21.420Z,68
2022-12-05T07:22:52.344Z,69
2022-12-05T07:25:22.845Z,69
2022-12-05T07:27:53.879Z,69
2022-12-05T07:30:24.390Z,69
2022-12-05T07:32:54.728Z,69
2022-12-05T07:35:25.667Z,68
2022-12-05T07:37:56.987Z,68
2022-12-05T07:40:27.774Z,68
2022-12-05T07:42:58.393Z,67
2022-12-05T07:45:29.235Z,68
2022-12-05T07:48:00.001Z,67
2022-12-05T07:50:30.550Z,67
2022-12-05T07:53:01.556Z,67
2022-12-05T07:55:31.736Z,67
2022-12-05T07:58:02.344Z,67
2022-12-05T08:00:33.455Z,67
2022-12-05T08:03:04.767Z,67
2022-12-05T08:05:35.686Z,66
2022-12-05T08:08:05.735Z,67
2022-12-05T08:10:36.426Z,66
2022-12-05T08:13:07.024Z,66
2022-12-05T08:15:37.943Z,65
2022-12-05T08:18:09.117Z,65
2022-12-05T08:20:40.236Z,65
2022-12-05T08:23:11.219Z,65
2022-12-05T08:25:42.114Z,65
2022-12-05T08:28:13.208Z,65
2022-12-05T08:30:44.976Z,65
2022-12-05T08:33:16.365Z,65
2022-12-05T08:35:46.839Z,64
2022-12-05T08:38:17.272Z,64
2022-12-05T08:40:47.786Z,65
2022-12-05T08:43:18.189Z,65
2022-12-05T08:45:48.713Z,64
2022-12-05T08:48:21.516Z,64
2022-12-05T08:50:50.167Z,64
2022-12-05T08:53:20.974Z,64
2022-12-05T08:55:52.095Z,64
2022-12-05T08:58:23.231Z,63
2022-12-05T09:00:54.499Z,63
2022-12-05T09:03:25.305Z,63
2022-12-05T09:05:55.699Z,63
2022-12-05T09:08:26.799Z,63
2022-12-05T09:10:57.290Z,63
2022-12-05T09:13:27.586Z,63
2022-12-05T09:15:57.936Z,63
2022-12-05T09:18:29.130Z,63
2022-12-05T09:20:59.850Z,63
2022-12-05T09:23:30.820Z,63
2022-12-05T09:26:01.182Z,63
2022-12-05T09:28:32.426Z,63
2022-12-05T09:31:04.063Z,63
2022-12-05T09:33:34.818Z,64
2022-12-05T09:36:05.841Z,63
2022-12-05T09:38:36.399Z,63
2022-12-05T09:41:07.144Z,63
2022-12-05T09:43:37.864Z,63
2022-12-05T09:46:08.567Z,62
2022-12-05T09:48:40.057Z,62
2022-12-05T09:51:10.790Z,62
2022-12-05T09:53:41.051Z,62
2022-12-05T09:56:11.781Z,62
2022-12-05T09:58:43.320Z,62
2022-12-05T10:01:14.771Z,61
2022-12-05T10:03:46.128Z,61
2022-12-05T10:06:17.328Z,61
2022-12-05T10:08:48.040Z,61
2022-12-05T10:11:18.434Z,60
2022-12-05T10:13:49.169Z,61
2022-12-05T10:16:20.546Z,61
2022-12-05T10:18:51.016Z,60
2022-12-05T10:21:21.611Z,61
2022-12-05T10:23:59.895Z,60
2022-12-05T10:26:23.868Z,60
2022-12-05T10:28:54.048Z,60
2022-12-05T10:31:25.174Z,60
2022-12-05T10:33:56.825Z,60
2022-12-05T10:36:27.294Z,60
2022-12-05T10:38:57.788Z,60
2022-12-05T10:41:29.126Z,60
2022-12-05T10:44:01.349Z,60
2022-12-05T10:46:32.614Z,59
2022-12-05T10:49:03.846Z,59
2022-12-05T10:51:37.652Z,58
2022-12-05T10:54:05.026Z,59
2022-12-05T10:56:35.739Z,59
2022-12-05T10:59:06.244Z,59
2022-12-05T11:01:37.146Z,59
2022-12-05T11:04:12.098Z,58
2022-12-05T11:06:38.463Z,59
2022-12-05T11:09:08.830Z,58
2022-12-05T11:11:38.957Z,58
2022-12-05T11:14:09.827Z,58
2022-12-05T11:16:40.249Z,58
2022-12-05T11:19:11.060Z,58
2022-12-05T11:21:41.070Z,58
2022-12-05T11:24:12.115Z,58
2022-12-05T11:26:42.610Z,59
2022-12-05T11:29:14.170Z,58
2022-12-05T11:31:44.986Z,58
2022-12-05T11:34:15.759Z,59
2022-12-05T11:36:49.628Z,59
2022-12-05T11:39:19.923Z,59
2022-12-05T11:41:50.855Z,59
2022-12-05T11:44:21.998Z,59
2022-12-05T11:46:53.206Z,58
2022-12-05T11:49:24.427Z,58
2022-12-05T11:51:54.992Z,58
2022-12-05T11:54:41.987Z,59
2022-12-05T11:56:54.785Z,59
2022-12-05T11:59:26.032Z,59
2022-12-05T12:01:56.852Z,58
2022-12-05T12:04:27.933Z,58
2022-12-05T12:06:59.222Z,58
2022-12-05T12:09:30.170Z,58
2022-12-05T12:12:01.021Z,58
2022-12-05T12:14:32.050Z,58
2022-12-05T12:17:02.322Z,58
2022-12-05T12:19:32.674Z,58
2022-12-05T12:22:03.485Z,57
2022-12-05T12:24:34.441Z,58
2022-12-05T12:27:05.020Z,57
2022-12-05T12:29:35.489Z,57
2022-12-05T12:32:05.951Z,58
2022-12-05T12:34:39.931Z,57
2022-12-05T12:37:10.543Z,58
2022-12-05T12:39:41.557Z,58
2022-12-05T12:42:12.033Z,58
2022-12-05T12:44:42.556Z,58
2022-12-05T12:47:14.024Z,58
2022-12-05T12:49:45.240Z,58
2022-12-05T12:52:16.487Z,58
2022-12-05T12:55:03.267Z,58
2022-12-05T12:57:22.147Z,58
2022-12-05T12:59:49.707Z,58
2022-12-05T13:02:20.771Z,58
2022-12-05T13:04:51.858Z,59
2022-12-05T13:07:22.394Z,59
2022-12-05T13:09:53.983Z,59
2022-12-05T13:12:24.946Z,59
2022-12-05T13:14:55.304Z,59
2022-12-05T13:17:26.192Z,59
2022-12-05T13:19:56.608Z,59
2022-12-05T13:22:26.970Z,60
2022-12-05T13:24:57.811Z,60
2022-12-05T13:27:29.025Z,60
2022-12-05T13:30:00.509Z,59
2022-12-05T13:32:30.582Z,60
2022-12-05T13:35:00.487Z,60
2022-12-05T13:37:31.326Z,60
2022-12-05T13:40:01.872Z,60
2022-12-05T13:42:32.833Z,60
2022-12-05T13:45:04.731Z,60
2022-12-05T13:47:35.645Z,60
2022-12-05T13:50:06.863Z,60
2022-12-05T13:52:37.287Z,60
2022-12-05T13:55:09.002Z,60
2022-12-05T13:57:39.524Z,60
2022-12-05T14:00:10.538Z,60
2022-12-05T14:02:41.469Z,61
2022-12-05T14:05:12.305Z,61
2022-12-05T14:07:42.893Z,61
2022-12-05T14:10:14.488Z,61
2022-12-05T14:12:45.749Z,61
2022-12-05T14:15:16.993Z,61
2022-12-05T14:17:48.648Z,61
2022-12-05T14:20:19.882Z,61
2022-12-05T14:22:51.225Z,61
2022-12-05T14:25:21.767Z,62
2022-12-05T14:27:53.643Z,62
2022-12-05T14:30:24.390Z,62
2022-12-05T14:32:54.863Z,62
2022-12-05T14:35:25.473Z,62
2022-12-05T14:37:56.589Z,62
2022-12-05T14:40:27.551Z,62
2022-12-05T14:42:59.097Z,62
2022-12-05T14:45:31.049Z,62
2022-12-05T14:48:02.432Z,63
2022-12-05T14:50:36.590Z,63
2022-12-05T14:53:07.170Z,63
2022-12-05T14:55:38.158Z,63
2022-12-05T14:58:09.482Z,64
2022-12-05T15:00:45.227Z,63
2022-12-05T15:03:12.184Z,63
2022-12-05T15:05:42.932Z,63
2022-12-05T15:08:14.371Z,63
2022-12-05T15:10:46.204Z,62
2022-12-05T15:13:17.597Z,62
2022-12-05T15:15:49.154Z,63
2022-12-05T15:18:20.482Z,62
2022-12-05T15:20:52.372Z,62
2022-12-05T15:23:23.538Z,62
2022-12-05T15:25:57.358Z,62
2022-12-05T15:28:26.095Z,62
2022-12-05T15:30:57.720Z,62
2022-12-05T15:33:29.262Z,62
2022-12-05T15:36:00.932Z,62
2022-12-05T15:38:32.143Z,62
2022-12-05T15:41:03.699Z,62
2022-12-05T15:43:34.544Z,62
2022-12-05T15:46:06.597Z,62
2022-12-05T15:48:37.619Z,62
2022-12-05T15:51:08.991Z,63
2022-12-05T15:53:39.769Z,63
2022-12-05T15:56:11.371Z,63
2022-12-05T15:58:42.494Z,63
2022-12-05T16:01:16.463Z,63
2022-12-05T16:03:47.695Z,63
2022-12-05T16:06:19.002Z,63
2022-12-05T16:08:50.219Z,63
2022-12-05T16:11:21.110Z,63
2022-12-05T16:13:52.174Z,63
2022-12-05T16:16:23.321Z,63
2022-12-05T16:18:54.874Z,63
2022-12-05T16:21:25.896Z,63
2022-12-05T16:23:55.233Z,63
2022-12-05T16:26:26.097Z,63
2022-12-05T16:28:57.279Z,63
2022-12-05T16:31:29.408Z,63
2022-12-05T16:34:00.465Z,63
2022-12-05T16:36:31.564Z,63
2022-12-05T16:39:02.386Z,64
2022-12-05T16:41:33.316Z,64
2022-12-05T16:44:07.381Z,64
2022-12-05T16:46:35.380Z,64
2022-12-05T16:49:06.406Z,64
2022-12-05T16:51:37.312Z,64
2022-12-05T16:54:08.217Z,64
2022-12-05T16:56:39.101Z,65
2022-12-05T16:59:10.314Z,64
2022-12-05T17:01:41.437Z,64
2022-12-05T17:04:12.792Z,64
2022-12-05T17:06:45.178Z,65
2022-12-05T17:09:16.279Z,65
2022-12-05T17:11:46.929Z,65
2022-12-05T17:14:18.393Z,65
2022-12-05T17:16:50.361Z,65
2022-12-05T17:19:21.609Z,65
2022-12-05T17:21:52.809Z,65
2022-12-05T17:24:24.301Z,65
2022-12-05T17:26:55.568Z,65
2022-12-05T17:29:29.869Z,65
2022-12-05T17:31:57.824Z,65
2022-12-05T17:34:29.188Z,65
2022-12-05T17:36:59.309Z,65
2022-12-05T17:39:30.269Z,65
2022-12-05T17:42:01.649Z,65
2022-12-05T17:44:32.633Z,65
2022-12-05T17:47:07.872Z,66
2022-12-05T17:49:35.261Z,66
2022-12-05T17:52:21.319Z,66
2022-12-05T17:54:37.624Z,65
2022-12-05T17:57:09.076Z,65
2022-12-05T17:59:40.428Z,65
2022-12-05T18:02:11.684Z,65
2022-12-05T18:04:42.842Z,65
2022-12-05T18:07:16.346Z,66
2022-12-05T18:09:47.298Z,66
2022-12-05T18:12:19.429Z,66
2022-12-05T18:14:50.434Z,67
2022-12-05T18:17:21.721Z,66
2022-12-05T18:19:52.764Z,66
2022-12-05T18:22:25.008Z,66
2022-12-05T18:24:55.974Z,66
2022-12-05T18:27:26.873Z,66
2022-12-05T18:29:58.125Z,66
2022-12-05T18:32:30.247Z,66
2022-12-05T18:35:01.661Z,66
2022-12-05T18:37:32.260Z,66
2022-12-05T18:40:03.500Z,66
2022-12-05T18:42:34.539Z,66
2022-12-05T18:45:05.758Z,66
2022-12-05T18:47:37.373Z,66
2022-12-05T18:50:09.459Z,66
2022-12-05T18:52:40.467Z,67
2022-12-05T18:55:23.571Z,67
2022-12-05T18:57:42.514Z,68
2022-12-05T19:00:14.079Z,68
2022-12-05T19:02:45.097Z,67
2022-12-05T19:05:16.315Z,67
2022-12-05T19:07:47.754Z,67
2022-12-05T19:10:18.792Z,68
2022-12-05T19:12:50.500Z,68
2022-12-05T19:15:21.688Z,68
2022-12-05T19:17:53.077Z,68
2022-12-05T19:20:25.504Z,68
2022-12-05T19:23:00.794Z,68
2022-12-05T19:25:27.941Z,68
2022-12-05T19:27:59.946Z,68
2022-12-05T19:30:30.860Z,68
2022-12-05T19:33:02.005Z,68
2022-12-05T19:35:32.587Z,68
2022-12-05T19:38:03.570Z,69
2022-12-05T19:40:35.819Z,69
2022-12-05T19:43:11.827Z,68
2022-12-05T19:45:43.059Z,68
2022-12-05T19:48:14.465Z,69
2022-12-05T19:50:46.967Z,69
2022-12-05T19:53:18.257Z,68
2022-12-05T19:55:48.983Z,69
2022-12-05T19:58:20.192Z,69
2022-12-05T20:00:51.450Z,69
2022-12-05T20:03:22.827Z,68
2022-12-05T20:05:54.069Z,69
2022-12-05T20:08:25.749Z,68
2022-12-05T20:10:56.948Z,68
2022-12-05T20:15:59.529Z,68
2022-12-05T20:18:29.514Z,68
2022-12-05T20:21:00.284Z,68
2022-12-05T20:23:31.373Z,69
2022-12-05T20:26:03.766Z,69
2022-12-05T20:28:36.773Z,69
2022-12-05T20:31:08.968Z,69
2022-12-05T20:33:41.174Z,68
2022-12-05T20:36:12.821Z,69
2022-12-05T20:38:44.447Z,69
2022-12-05T20:41:15.495Z,69
2022-12-05T20:43:46.697Z,69
2022-12-05T20:46:19.254Z,69
2022-12-05T20:48:50.816Z,69
2022-12-05T20:51:21.878Z,69
2022-12-05T20:53:53.459Z,69
2022-12-05T20:56:25.761Z,69
2022-12-05T20:58:56.391Z,70
2022-12-05T21:01:27.916Z,70
2022-12-05T21:04:03.249Z,71
2022-12-05T21:06:35.490Z,70
2022-12-05T21:09:07.281Z,70
2022-12-05T21:11:36.921Z,70
2022-12-05T21:14:07.942Z,70
2022-12-05T21:16:40.242Z,70
2022-12-05T21:19:16.341Z,71
2022-12-05T21:21:47.845Z,70
2022-12-05T21:24:19.307Z,71
2022-12-05T21:26:50.226Z,71
2022-12-05T21:29:21.657Z,70
2022-12-05T21:31:52.569Z,71
2022-12-05T21:34:23.888Z,71
2022-12-05T21:36:54.403Z,71
2022-12-05T21:39:25.534Z,71
2022-12-05T21:41:56.596Z,71
2022-12-05T21:44:27.576Z,71
2022-12-05T21:46:58.349Z,71
2022-12-05T21:49:29.748Z,71
2022-12-05T21:52:01.274Z,71
2022-12-05T21:54:32.824Z,71
2022-12-05T21:57:04.134Z,71
2022-12-05T21:59:36.418Z,71
2022-12-05T22:02:07.868Z,71
2022-12-05T22:04:39.125Z,71
2022-12-05T22:07:10.241Z,71
2022-12-05T22:09:41.482Z,71
2022-12-05T22:12:12.437Z,71
2022-12-05T22:14:44.320Z,71
2022-12-05T22:17:15.654Z,71
2022-12-05T22:19:46.388Z,72
2022-12-05T22:22:17.379Z,72
2022-12-05T22:24:48.618Z,72
2022-12-05T22:27:20.123Z,73
2022-12-05T22:29:52.784Z,73
2022-12-05T22:32:22.188Z,73
2022-12-05T22:34:54.747Z,72
2022-12-05T22:37:25.397Z,73
2022-12-05T22:39:57.174Z,73
2022-12-05T22:42:29.064Z,73
2022-12-05T22:45:00.614Z,73
2022-12-05T22:47:31.982Z,73
2022-12-05T22:50:03.184Z,73
2022-12-05T22:52:35.036Z,73
2022-12-05T22:55:06.451Z,73
2022-12-05T22:57:37.522Z,73
2022-12-05T23:00:09.102Z,73
2022-12-05T23:02:40.333Z,73
2022-12-05T23:05:11.567Z,73
2022-12-05T23:07:42.718Z,73
2022-12-05T23:10:14.535Z,73
2022-12-05T23:12:45.971Z,73
2022-12-05T23:15:17.134Z,73
2022-12-05T23:17:48.175Z,73
2022-12-05T23:20:19.706Z,73
2022-12-05T23:22:50.038Z,73
2022-12-05T23:25:21.225Z,73
2022-12-05T23:27:51.847Z,73
2022-12-05T23:30:22.078Z,73
2022-12-05T23:32:52.992Z,73
2022-12-05T23:35:23.913Z,74
2022-12-05T23:37:54.525Z,73
2022-12-05T23:40:25.444Z,73
2022-12-05T23:42:56.353Z,73
2022-12-05T23:45:27.699Z,73
2022-12-05T23:48:01.768Z,73
2022-12-05T23:50:29.308Z,73
2022-12-05T23:53:00.047Z,74
2022-12-05T23:55:31.172Z,73
2022-12-05T23:58:02.021Z,73
